createdAt,value
2023-02-26T00:01:37.798Z,99.10
2023-02-26T00:04:06.155Z,99.10
2023-02-26T00:06:35.631Z,99.10
2023-02-26T00:09:04.763Z,99.00
2023-02-26T00:11:36.795Z,99.00
2023-02-26T00:14:03.690Z,98.90
2023-02-26T00:16:34.103Z,98.90
2023-02-26T00:19:04.487Z,99.00
2023-02-26T00:21:32.484Z,99.00
2023-02-26T00:24:02.203Z,99.10
2023-02-26T00:26:31.346Z,99.10
2023-02-26T00:29:02.875Z,99.10
2023-02-26T00:31:29.952Z,99.20
2023-02-26T00:34:00.141Z,99.20
2023-02-26T00:36:48.941Z,99.20
2023-02-26T00:39:15.558Z,99.20
2023-02-26T00:41:42.648Z,99.20
2023-02-26T00:44:11.940Z,99.20
2023-02-26T00:47:03.227Z,99.30
2023-02-26T00:50:24.024Z,99.30
2023-02-26T00:53:17.499Z,99.40
2023-02-26T00:55:44.140Z,99.40
2023-02-26T00:58:13.168Z,99.40
2023-02-26T01:00:39.815Z,99.40
2023-02-26T01:03:06.925Z,99.40
2023-02-26T01:05:33.898Z,99.40
2023-02-26T01:08:21.983Z,99.40
2023-02-26T01:10:51.200Z,99.50
2023-02-26T01:13:23.440Z,99.60
2023-02-26T01:15:59.192Z,99.70
2023-02-26T01:18:36.981Z,99.80
2023-02-26T01:21:08.614Z,99.90
2023-02-26T01:23:46.744Z,99.90
2023-02-26T01:26:28.189Z,99.90
2023-02-26T01:28:55.730Z,99.90
2023-02-26T01:31:46.807Z,99.90
2023-02-26T01:34:19.429Z,99.90
2023-02-26T01:36:57.005Z,99.90
2023-02-26T01:39:30.576Z,99.90
2023-02-26T01:42:28.956Z,99.90
2023-02-26T01:45:04.209Z,99.90
2023-02-26T01:47:36.417Z,99.90
2023-02-26T01:50:25.646Z,99.90
2023-02-26T01:52:52.292Z,99.90
2023-02-26T01:55:27.144Z,99.90
2023-02-26T01:57:59.112Z,99.90
2023-02-26T02:00:28.275Z,99.90
2023-02-26T02:02:55.243Z,99.90
2023-02-26T02:05:34.626Z,99.90
2023-02-26T02:08:01.880Z,99.90
2023-02-26T02:10:29.084Z,99.90
2023-02-26T02:13:16.906Z,99.90
2023-02-26T02:15:54.604Z,99.90
2023-02-26T02:18:32.042Z,99.90
2023-02-26T02:21:20.668Z,99.90
2023-02-26T02:24:17.014Z,99.90
2023-02-26T02:26:59.565Z,99.90
2023-02-26T02:29:52.028Z,99.90
2023-02-26T02:32:51.151Z,99.90
2023-02-26T02:35:22.894Z,99.90
2023-02-26T02:38:08.336Z,99.90
2023-02-26T02:40:40.357Z,99.90
2023-02-26T02:43:15.239Z,99.90
2023-02-26T02:45:52.772Z,99.90
2023-02-26T02:48:28.785Z,99.90
2023-02-26T02:51:00.244Z,99.90
2023-02-26T02:53:48.112Z,99.90
2023-02-26T02:56:39.744Z,99.90
2023-02-26T02:59:35.784Z,99.90
2023-02-26T03:02:23.756Z,99.90
2023-02-26T03:04:50.747Z,99.90
2023-02-26T03:07:17.610Z,99.90
2023-02-26T03:09:44.518Z,99.90
2023-02-26T03:12:11.716Z,99.90
2023-02-26T03:14:41.657Z,99.90
2023-02-26T03:17:23.097Z,99.90
2023-02-26T03:20:01.884Z,99.90
2023-02-26T03:22:58.995Z,99.90
2023-02-26T03:25:43.287Z,99.90
2023-02-26T03:28:38.235Z,99.90
2023-02-26T03:31:39.030Z,99.90
2023-02-26T03:34:26.763Z,99.90
2023-02-26T03:37:02.067Z,99.90
2023-02-26T03:39:40.799Z,99.90
2023-02-26T03:42:36.331Z,99.90
2023-02-26T03:45:09.452Z,99.90
2023-02-26T03:47:37.607Z,99.90
2023-02-26T03:50:14.688Z,99.90
2023-02-26T03:52:44.997Z,99.90
2023-02-26T03:55:17.415Z,99.90
2023-02-26T03:57:45.067Z,99.90
2023-02-26T04:00:17.953Z,99.90
2023-02-26T04:03:09.537Z,99.90
2023-02-26T04:05:41.050Z,99.90
2023-02-26T04:08:08.034Z,99.90
2023-02-26T04:10:42.140Z,99.90
2023-02-26T04:13:08.813Z,99.90
2023-02-26T04:15:35.536Z,99.90
2023-02-26T04:18:02.216Z,99.90
2023-02-26T04:20:28.901Z,99.90
2023-02-26T04:22:55.634Z,99.90
2023-02-26T04:25:22.347Z,99.90
2023-02-26T04:27:53.373Z,99.90
2023-02-26T04:30:22.499Z,99.90
2023-02-26T04:32:49.278Z,99.90
2023-02-26T04:35:15.993Z,99.90
2023-02-26T04:37:42.826Z,99.90
2023-02-26T04:40:09.996Z,99.90
2023-02-26T04:42:36.734Z,99.90
2023-02-26T04:45:03.893Z,99.90
2023-02-26T04:47:30.842Z,99.90
2023-02-26T04:50:00.244Z,99.90
2023-02-26T04:52:27.095Z,99.90
2023-02-26T04:54:53.731Z,99.90
2023-02-26T04:57:20.399Z,99.90
2023-02-26T04:59:47.479Z,99.90
2023-02-26T05:02:14.225Z,99.90
2023-02-26T05:04:41.049Z,99.90
2023-02-26T05:07:07.809Z,99.90
2023-02-26T05:09:34.500Z,99.90
2023-02-26T05:12:06.014Z,99.90
2023-02-26T05:14:32.635Z,99.90
2023-02-26T05:16:59.538Z,99.90
2023-02-26T05:19:28.715Z,99.90
2023-02-26T05:21:55.352Z,99.90
2023-02-26T05:24:22.124Z,99.90
2023-02-26T05:26:48.944Z,99.90
2023-02-26T05:29:15.626Z,99.90
2023-02-26T05:31:42.872Z,99.90
2023-02-26T05:34:11.890Z,99.90
2023-02-26T05:36:38.592Z,99.90
2023-02-26T05:39:08.831Z,99.90
2023-02-26T05:41:35.527Z,99.90
2023-02-26T05:44:02.572Z,99.90
2023-02-26T05:46:29.573Z,99.90
2023-02-26T05:48:56.335Z,99.90
2023-02-26T05:51:25.867Z,99.90
2023-02-26T05:53:52.513Z,99.90
2023-02-26T05:56:21.562Z,99.90
2023-02-26T05:58:50.596Z,99.90
2023-02-26T06:01:17.322Z,99.90
2023-02-26T06:03:44.465Z,99.90
2023-02-26T06:06:18.497Z,99.90
2023-02-26T06:08:45.992Z,99.90
2023-02-26T06:11:18.000Z,99.90
2023-02-26T06:13:47.126Z,99.90
2023-02-26T06:16:13.921Z,99.90
2023-02-26T06:18:42.982Z,99.90
2023-02-26T06:21:09.742Z,99.90
2023-02-26T06:23:38.642Z,99.90
2023-02-26T06:26:05.811Z,99.90
2023-02-26T06:28:36.279Z,99.90
2023-02-26T06:31:03.236Z,99.90
2023-02-26T06:33:30.069Z,99.90
2023-02-26T06:35:57.934Z,99.90
2023-02-26T06:38:24.760Z,99.90
2023-02-26T06:40:53.690Z,99.90
2023-02-26T06:43:20.750Z,99.90
2023-02-26T06:45:48.073Z,99.90
2023-02-26T06:48:17.164Z,99.90
2023-02-26T06:50:43.834Z,99.90
2023-02-26T06:53:12.725Z,99.90
2023-02-26T06:55:44.867Z,99.90
2023-02-26T06:58:15.969Z,99.90
2023-02-26T07:00:42.595Z,99.90
2023-02-26T07:03:14.922Z,99.90
2023-02-26T07:05:44.022Z,99.90
2023-02-26T07:08:13.449Z,99.90
2023-02-26T07:10:42.746Z,99.90
2023-02-26T07:13:09.673Z,99.90
2023-02-26T07:15:36.359Z,99.90
2023-02-26T07:18:03.309Z,99.90
2023-02-26T07:20:30.045Z,99.90
2023-02-26T07:22:57.553Z,99.90
2023-02-26T07:25:24.647Z,99.90
2023-02-26T07:27:51.887Z,99.90
2023-02-26T07:30:18.855Z,99.90
2023-02-26T07:32:47.830Z,99.90
2023-02-26T07:35:14.514Z,99.90
2023-02-26T07:37:41.215Z,99.90
2023-02-26T07:40:08.845Z,99.90
2023-02-26T07:42:37.951Z,99.90
2023-02-26T07:45:05.637Z,99.90
2023-02-26T07:47:34.862Z,99.90
2023-02-26T07:50:01.601Z,99.90
2023-02-26T07:52:28.919Z,99.90
2023-02-26T07:54:55.688Z,99.90
2023-02-26T07:57:24.592Z,99.90
2023-02-26T07:59:51.328Z,99.90
2023-02-26T08:02:20.489Z,99.90
2023-02-26T08:04:49.319Z,99.90
2023-02-26T08:07:16.107Z,99.90
2023-02-26T08:09:42.772Z,99.90
2023-02-26T08:12:09.770Z,99.90
2023-02-26T08:14:41.725Z,99.90
2023-02-26T08:17:09.545Z,99.90
2023-02-26T08:19:36.300Z,99.90
2023-02-26T08:22:03.832Z,99.90
2023-02-26T08:24:33.027Z,99.90
2023-02-26T08:27:02.504Z,99.90
2023-02-26T08:29:29.238Z,99.90
2023-02-26T08:31:56.057Z,99.90
2023-02-26T08:34:25.684Z,99.90
2023-02-26T08:36:52.441Z,99.90
2023-02-26T08:39:19.242Z,99.90
2023-02-26T08:41:46.126Z,99.90
2023-02-26T08:44:12.817Z,99.90
2023-02-26T08:46:39.518Z,99.90
2023-02-26T08:49:06.256Z,99.90
2023-02-26T08:51:33.075Z,99.90
2023-02-26T08:53:59.738Z,99.90
2023-02-26T08:56:26.830Z,99.90
2023-02-26T08:58:54.052Z,99.90
2023-02-26T09:01:20.954Z,99.90
2023-02-26T09:03:47.681Z,99.90
2023-02-26T09:06:15.296Z,99.90
2023-02-26T09:08:41.973Z,99.90
2023-02-26T09:11:08.746Z,99.90
2023-02-26T09:13:35.414Z,99.90
2023-02-26T09:16:02.130Z,99.90
2023-02-26T09:18:31.212Z,99.90
2023-02-26T09:20:58.049Z,99.90
2023-02-26T09:23:25.249Z,99.90
2023-02-26T09:25:56.192Z,99.90
2023-02-26T09:28:25.542Z,99.90
2023-02-26T09:30:58.299Z,99.90
2023-02-26T09:33:27.158Z,99.90
2023-02-26T09:35:53.906Z,99.90
2023-02-26T09:38:23.661Z,99.90
2023-02-26T09:40:58.612Z,99.90
2023-02-26T09:44:07.876Z,99.90
2023-02-26T09:46:44.251Z,99.90
2023-02-26T09:49:20.054Z,99.90
2023-02-26T09:51:52.181Z,99.90
2023-02-26T09:54:24.531Z,99.90
2023-02-26T09:56:58.651Z,99.90
2023-02-26T09:59:30.175Z,99.90
2023-02-26T10:02:19.660Z,99.90
2023-02-26T10:04:51.547Z,99.90
2023-02-26T10:07:45.150Z,99.90
2023-02-26T10:10:42.336Z,99.90
2023-02-26T10:13:24.716Z,99.90
2023-02-26T10:15:53.604Z,99.40
2023-02-26T10:18:29.755Z,98.20
2023-02-26T10:21:08.402Z,96.20
2023-02-26T10:23:52.681Z,98.10
2023-02-26T10:26:22.314Z,95.70
2023-02-26T10:29:23.508Z,94.20
2023-02-26T10:32:02.263Z,91.60
2023-02-26T10:34:40.187Z,91.00
2023-02-26T10:37:23.151Z,91.60
2023-02-26T10:40:09.678Z,92.00
2023-02-26T10:43:01.683Z,92.10
2023-02-26T10:45:37.223Z,93.00
2023-02-26T10:48:24.636Z,93.50
2023-02-26T10:50:57.081Z,94.20
2023-02-26T10:53:24.846Z,94.50
2023-02-26T10:55:56.499Z,95.10
2023-02-26T10:58:28.943Z,93.70
2023-02-26T11:00:56.716Z,92.00
2023-02-26T11:03:35.971Z,91.20
2023-02-26T11:06:04.663Z,90.40
2023-02-26T11:08:43.196Z,90.70
2023-02-26T11:11:10.631Z,91.50
2023-02-26T11:13:38.993Z,92.60
2023-02-26T11:16:12.894Z,92.90
2023-02-26T11:18:48.202Z,93.10
2023-02-26T11:21:29.322Z,93.60
2023-02-26T11:24:01.799Z,94.10
2023-02-26T11:26:34.195Z,94.90
2023-02-26T11:29:03.196Z,94.80
2023-02-26T11:31:31.051Z,95.60
2023-02-26T11:34:11.239Z,95.60
2023-02-26T11:36:41.446Z,95.80
2023-02-26T11:39:18.458Z,95.90
2023-02-26T11:41:47.700Z,96.60
2023-02-26T11:44:35.129Z,96.20
2023-02-26T11:47:12.754Z,96.00
2023-02-26T11:49:55.222Z,96.10
2023-02-26T11:52:26.630Z,96.40
2023-02-26T11:54:59.535Z,96.80
2023-02-26T11:57:31.008Z,97.40
2023-02-26T12:00:16.829Z,96.90
2023-02-26T12:02:46.002Z,96.70
2023-02-26T12:05:16.949Z,96.60
2023-02-26T12:07:46.826Z,96.60
2023-02-26T12:10:23.930Z,96.40
2023-02-26T12:13:36.919Z,96.00
2023-02-26T12:16:22.875Z,95.70
2023-02-26T12:19:04.299Z,95.40
2023-02-26T12:21:49.472Z,95.40
2023-02-26T12:24:30.987Z,95.60
2023-02-26T12:27:25.531Z,95.70
2023-02-26T12:29:54.908Z,95.50
2023-02-26T12:32:33.737Z,95.80
2023-02-26T12:35:22.020Z,95.90
2023-02-26T12:37:52.159Z,96.00
2023-02-26T12:40:30.791Z,96.10
2023-02-26T12:43:00.561Z,96.10
2023-02-26T12:46:02.260Z,95.90
2023-02-26T12:48:37.672Z,96.00
2023-02-26T12:51:34.670Z,95.40
2023-02-26T12:54:16.335Z,95.00
2023-02-26T12:56:55.876Z,94.90
2023-02-26T12:59:31.527Z,94.90
2023-02-26T13:02:31.831Z,94.60
2023-02-26T13:05:18.260Z,94.00
2023-02-26T13:08:25.949Z,96.10
2023-02-26T13:11:29.548Z,94.20
2023-02-26T13:14:21.442Z,94.10
2023-02-26T13:17:15.264Z,94.20
2023-02-26T13:19:50.942Z,94.50
2023-02-26T13:22:43.629Z,95.10
2023-02-26T13:25:24.761Z,95.40
2023-02-26T13:27:56.611Z,95.80
2023-02-26T13:30:40.661Z,96.50
2023-02-26T13:33:09.489Z,97.90
2023-02-26T13:35:42.545Z,97.80
2023-02-26T13:38:30.680Z,98.00
2023-02-26T13:41:14.245Z,97.90
2023-02-26T13:43:50.349Z,97.30
2023-02-26T13:46:43.947Z,97.00
2023-02-26T13:49:23.521Z,96.90
2023-02-26T13:51:55.983Z,95.80
2023-02-26T13:54:25.375Z,95.30
2023-02-26T13:57:25.841Z,95.00
2023-02-26T14:00:13.259Z,95.00
2023-02-26T14:02:54.058Z,94.90
2023-02-26T14:05:35.222Z,94.10
2023-02-26T14:08:01.831Z,93.60
2023-02-26T14:10:57.427Z,93.60
2023-02-26T14:13:40.063Z,92.90
2023-02-26T14:16:21.464Z,92.70
2023-02-26T14:18:48.177Z,92.40
2023-02-26T14:21:33.270Z,92.20
2023-02-26T14:24:09.410Z,91.00
2023-02-26T14:26:43.799Z,91.40
2023-02-26T14:29:17.237Z,91.30
2023-02-26T14:32:11.409Z,91.20
2023-02-26T14:34:59.970Z,90.90
2023-02-26T14:37:31.951Z,90.60
2023-02-26T14:40:20.702Z,90.50
2023-02-26T14:42:52.586Z,90.50
2023-02-26T14:45:30.189Z,89.90
2023-02-26T14:47:59.303Z,90.10
2023-02-26T14:50:31.614Z,90.40
2023-02-26T14:53:29.090Z,89.50
2023-02-26T14:56:26.253Z,88.90
2023-02-26T14:59:07.723Z,88.60
2023-02-26T15:01:53.645Z,88.40
2023-02-26T15:04:25.422Z,89.00
2023-02-26T15:07:23.207Z,87.50
2023-02-26T15:10:04.355Z,85.90
2023-02-26T15:13:07.517Z,86.80
2023-02-26T15:15:58.185Z,86.90
2023-02-26T15:18:49.080Z,85.50
2023-02-26T15:21:59.913Z,85.30
2023-02-26T15:24:29.852Z,85.60
2023-02-26T15:27:02.001Z,86.60
2023-02-26T15:29:33.059Z,87.00
2023-02-26T15:32:23.256Z,87.40
2023-02-26T15:34:58.526Z,87.30
2023-02-26T15:37:28.216Z,87.50
2023-02-26T15:39:54.910Z,87.50
2023-02-26T15:42:32.223Z,87.40
2023-02-26T15:45:01.541Z,88.30
2023-02-26T15:47:30.309Z,88.50
2023-02-26T15:49:58.816Z,88.40
2023-02-26T15:52:27.241Z,88.50
2023-02-26T15:55:04.571Z,88.10
2023-02-26T15:57:33.939Z,88.10
2023-02-26T16:00:08.167Z,88.50
2023-02-26T16:02:35.030Z,88.60
2023-02-26T16:05:02.582Z,88.90
2023-02-26T16:07:29.442Z,88.30
2023-02-26T16:09:56.895Z,87.50
2023-02-26T16:12:38.598Z,86.70
2023-02-26T16:15:12.426Z,86.70
2023-02-26T16:17:46.359Z,87.10
2023-02-26T16:20:20.068Z,86.10
2023-02-26T16:22:57.827Z,84.00
2023-02-26T16:25:36.738Z,81.20
2023-02-26T16:28:26.665Z,78.30
2023-02-26T16:30:56.138Z,74.70
2023-02-26T16:33:24.739Z,71.30
2023-02-26T16:36:03.806Z,67.90
2023-02-26T16:38:52.629Z,65.80
2023-02-26T16:41:24.252Z,66.40
2023-02-26T16:43:55.686Z,68.60
2023-02-26T16:46:45.224Z,70.90
2023-02-26T16:49:20.889Z,74.00
2023-02-26T16:51:50.601Z,78.40
2023-02-26T16:54:38.950Z,79.80
2023-02-26T16:57:29.900Z,81.00
2023-02-26T16:59:59.542Z,82.40
2023-02-26T17:02:34.674Z,83.30
2023-02-26T17:05:15.597Z,84.50
2023-02-26T17:07:56.815Z,85.20
2023-02-26T17:10:48.668Z,85.90
2023-02-26T17:13:26.430Z,86.90
2023-02-26T17:15:58.635Z,87.40
2023-02-26T17:18:25.661Z,87.90
2023-02-26T17:20:52.846Z,87.10
2023-02-26T17:23:24.310Z,86.80
2023-02-26T17:25:55.814Z,87.00
2023-02-26T17:28:43.806Z,87.20
2023-02-26T17:31:12.721Z,87.50
2023-02-26T17:33:45.138Z,87.30
2023-02-26T17:36:18.775Z,87.30
2023-02-26T17:38:47.150Z,87.30
2023-02-26T17:41:18.501Z,87.20
2023-02-26T17:43:45.318Z,87.40
2023-02-26T17:46:12.455Z,87.90
2023-02-26T17:48:42.116Z,88.80
2023-02-26T17:51:09.739Z,88.40
2023-02-26T17:53:41.010Z,88.70
2023-02-26T17:56:28.716Z,88.70
2023-02-26T17:59:01.269Z,89.40
2023-02-26T18:01:31.579Z,89.80
2023-02-26T18:04:00.863Z,90.00
2023-02-26T18:06:31.135Z,90.20
2023-02-26T18:09:00.793Z,90.20
2023-02-26T18:11:28.228Z,90.30
2023-02-26T18:13:55.526Z,90.50
2023-02-26T18:16:28.032Z,90.60
2023-02-26T18:18:57.249Z,91.10
2023-02-26T18:21:29.487Z,90.80
2023-02-26T18:23:57.580Z,90.90
2023-02-26T18:26:27.725Z,91.00
2023-02-26T18:28:57.042Z,91.10
2023-02-26T18:31:27.740Z,91.30
2023-02-26T18:33:58.123Z,91.50
2023-02-26T18:36:34.149Z,91.60
2023-02-26T18:39:02.901Z,91.50
2023-02-26T18:41:31.896Z,91.60
2023-02-26T18:44:00.078Z,91.60
2023-02-26T18:46:30.305Z,91.50
2023-02-26T18:48:59.304Z,91.50
2023-02-26T18:51:26.497Z,91.60
2023-02-26T18:53:54.388Z,91.70
2023-02-26T18:56:21.102Z,91.80
2023-02-26T18:58:47.833Z,91.90
2023-02-26T19:01:14.498Z,92.00
2023-02-26T19:03:41.204Z,92.20
2023-02-26T19:06:09.181Z,92.20
2023-02-26T19:08:36.551Z,92.40
2023-02-26T19:11:04.213Z,92.50
2023-02-26T19:13:31.051Z,92.60
2023-02-26T19:16:00.488Z,92.50
2023-02-26T19:18:30.149Z,92.50
2023-02-26T19:20:59.239Z,92.60
2023-02-26T19:23:25.992Z,92.60
2023-02-26T19:25:52.883Z,92.70
2023-02-26T19:28:20.009Z,92.70
2023-02-26T19:30:46.692Z,92.70
2023-02-26T19:33:13.477Z,92.60
2023-02-26T19:35:40.409Z,92.30
2023-02-26T19:38:07.482Z,92.40
2023-02-26T19:40:36.364Z,92.30
2023-02-26T19:43:03.224Z,91.80
2023-02-26T19:45:30.015Z,91.40
2023-02-26T19:47:56.722Z,90.70
2023-02-26T19:50:25.558Z,90.40
2023-02-26T19:52:53.042Z,90.30
2023-02-26T19:55:20.286Z,90.30
2023-02-26T19:57:49.519Z,90.60
2023-02-26T20:00:19.355Z,90.40
2023-02-26T20:02:48.969Z,90.30
2023-02-26T20:05:18.306Z,90.20
2023-02-26T20:07:45.622Z,90.30
2023-02-26T20:10:19.075Z,90.30
2023-02-26T20:12:45.978Z,90.00
2023-02-26T20:15:13.285Z,89.70
2023-02-26T20:17:42.846Z,89.40
2023-02-26T20:20:10.305Z,89.00
2023-02-26T20:22:37.120Z,88.80
2023-02-26T20:25:04.566Z,88.40
2023-02-26T20:27:31.859Z,88.30
2023-02-26T20:29:58.583Z,88.60
2023-02-26T20:32:26.142Z,88.40
2023-02-26T20:34:52.905Z,88.20
2023-02-26T20:37:19.696Z,88.50
2023-02-26T20:39:49.028Z,88.60
2023-02-26T20:42:16.964Z,88.80
2023-02-26T20:44:46.059Z,89.20
2023-02-26T20:47:12.824Z,89.60
2023-02-26T20:49:42.032Z,90.00
2023-02-26T20:52:08.960Z,90.10
2023-02-26T20:54:37.963Z,90.20
2023-02-26T20:57:04.859Z,90.30
2023-02-26T20:59:31.797Z,90.40
2023-02-26T21:01:58.612Z,90.60
2023-02-26T21:04:25.390Z,90.90
2023-02-26T21:06:54.633Z,91.00
2023-02-26T21:09:24.200Z,91.10
2023-02-26T21:11:52.594Z,91.20
2023-02-26T21:14:19.572Z,91.40
2023-02-26T21:16:46.506Z,91.50
2023-02-26T21:19:13.386Z,91.70
2023-02-26T21:21:40.146Z,91.80
2023-02-26T21:24:09.445Z,92.00
2023-02-26T21:26:39.995Z,92.00
2023-02-26T21:29:07.005Z,92.00
2023-02-26T21:31:33.763Z,92.10
2023-02-26T21:34:23.487Z,92.20
2023-02-26T21:36:57.135Z,92.30
2023-02-26T21:39:26.122Z,92.50
2023-02-26T21:41:55.017Z,92.60
2023-02-26T21:44:21.737Z,92.70
2023-02-26T21:46:48.436Z,92.80
2023-02-26T21:49:17.433Z,93.00
2023-02-26T21:51:44.192Z,93.10
2023-02-26T21:54:13.108Z,93.30
2023-02-26T21:56:42.326Z,93.70
2023-02-26T21:59:09.048Z,93.90
2023-02-26T22:01:38.017Z,94.20
2023-02-26T22:04:05.174Z,94.40
2023-02-26T22:06:31.904Z,94.70
2023-02-26T22:09:01.009Z,94.90
2023-02-26T22:11:30.120Z,95.20
2023-02-26T22:13:56.934Z,95.50
2023-02-26T22:16:24.392Z,95.70
2023-02-26T22:18:51.230Z,95.90
2023-02-26T22:21:18.595Z,96.10
2023-02-26T22:23:45.257Z,96.20
2023-02-26T22:26:11.925Z,96.50
2023-02-26T22:28:41.402Z,96.60
2023-02-26T22:31:10.633Z,96.70
2023-02-26T22:33:37.342Z,96.90
2023-02-26T22:36:04.253Z,97.10
2023-02-26T22:38:30.908Z,97.20
2023-02-26T22:40:57.891Z,97.40
2023-02-26T22:43:24.511Z,97.80
2023-02-26T22:45:51.150Z,97.60
2023-02-26T22:48:17.869Z,97.70
2023-02-26T22:50:50.222Z,97.80
2023-02-26T22:53:16.971Z,97.90
2023-02-26T22:55:43.617Z,98.10
2023-02-26T22:58:10.482Z,98.30
2023-02-26T23:00:37.129Z,98.40
2023-02-26T23:03:07.019Z,98.50
2023-02-26T23:05:34.037Z,98.70
2023-02-26T23:08:00.712Z,98.80
2023-02-26T23:10:27.380Z,99.10
2023-02-26T23:12:54.028Z,99.30
2023-02-26T23:15:20.824Z,99.50
2023-02-26T23:17:47.583Z,99.90
2023-02-26T23:20:14.835Z,99.90
2023-02-26T23:22:43.565Z,99.90
2023-02-26T23:25:12.131Z,99.90
2023-02-26T23:27:39.714Z,99.90
2023-02-26T23:30:08.276Z,99.90
2023-02-26T23:32:37.183Z,99.90
2023-02-26T23:35:04.305Z,99.90
2023-02-26T23:37:31.049Z,99.90
2023-02-26T23:39:59.985Z,99.90
2023-02-26T23:42:26.635Z,99.90
2023-02-26T23:44:55.910Z,99.90
2023-02-26T23:47:22.652Z,99.90
2023-02-26T23:49:51.966Z,99.90
2023-02-26T23:52:18.870Z,99.90
2023-02-26T23:54:47.779Z,99.90
2023-02-26T23:57:14.517Z,99.90
2023-02-26T23:59:43.522Z,99.90
